sensor_id;sensor_type;location;lat;lon;timestamp;P1;durP1;ratioP1;P2;durP2;ratioP2
22929;SDS011;11630;42.660;23.292;2023-08-12T00:01:58;5.63;;;3.20;;
22929;SDS011;11630;42.660;23.292;2023-08-12T00:04:28;4.13;;;3.20;;
22929;SDS011;11630;42.660;23.292;2023-08-12T00:06:59;4.87;;;3.33;;
22929;SDS011;11630;42.660;23.292;2023-08-12T00:09:31;6.33;;;3.57;;
22929;SDS011;11630;42.660;23.292;2023-08-12T00:12:01;6.07;;;4.13;;
22929;SDS011;11630;42.660;23.292;2023-08-12T00:14:32;5.50;;;3.63;;
22929;SDS011;11630;42.660;23.292;2023-08-12T00:17:03;5.77;;;2.93;;
22929;SDS011;11630;42.660;23.292;2023-08-12T00:19:33;3.13;;;2.90;;
22929;SDS011;11630;42.660;23.292;2023-08-12T00:22:04;4.67;;;3.57;;
22929;SDS011;11630;42.660;23.292;2023-08-12T00:24:35;3.37;;;3.07;;
22929;SDS011;11630;42.660;23.292;2023-08-12T00:27:06;2.83;;;2.63;;
22929;SDS011;11630;42.660;23.292;2023-08-12T00:29:37;4.03;;;3.20;;
22929;SDS011;11630;42.660;23.292;2023-08-12T00:32:08;4.27;;;3.10;;
22929;SDS011;11630;42.660;23.292;2023-08-12T00:34:38;3.80;;;3.20;;
22929;SDS011;11630;42.660;23.292;2023-08-12T00:37:08;6.00;;;3.40;;
22929;SDS011;11630;42.660;23.292;2023-08-12T00:39:39;5.17;;;3.30;;
22929;SDS011;11630;42.660;23.292;2023-08-12T00:42:09;3.53;;;3.13;;
22929;SDS011;11630;42.660;23.292;2023-08-12T00:44:39;3.77;;;3.37;;
22929;SDS011;11630;42.660;23.292;2023-08-12T00:47:10;4.60;;;3.47;;
22929;SDS011;11630;42.660;23.292;2023-08-12T00:49:41;4.03;;;3.63;;
22929;SDS011;11630;42.660;23.292;2023-08-12T00:52:13;3.53;;;3.10;;
22929;SDS011;11630;42.660;23.292;2023-08-12T00:54:44;5.70;;;3.47;;
22929;SDS011;11630;42.660;23.292;2023-08-12T00:57:16;3.47;;;3.17;;
22929;SDS011;11630;42.660;23.292;2023-08-12T00:59:46;3.40;;;3.10;;
22929;SDS011;11630;42.660;23.292;2023-08-12T01:02:18;4.53;;;3.10;;
22929;SDS011;11630;42.660;23.292;2023-08-12T01:04:49;4.80;;;3.40;;
22929;SDS011;11630;42.660;23.292;2023-08-12T01:07:20;3.33;;;3.03;;
22929;SDS011;11630;42.660;23.292;2023-08-12T01:09:50;4.90;;;3.27;;
22929;SDS011;11630;42.660;23.292;2023-08-12T01:12:26;3.50;;;3.20;;
22929;SDS011;11630;42.660;23.292;2023-08-12T01:17:28;3.83;;;3.30;;
22929;SDS011;11630;42.660;23.292;2023-08-12T01:19:59;4.33;;;3.87;;
22929;SDS011;11630;42.660;23.292;2023-08-12T01:22:31;3.30;;;3.00;;
22929;SDS011;11630;42.660;23.292;2023-08-12T01:25:03;3.30;;;3.00;;
22929;SDS011;11630;42.660;23.292;2023-08-12T01:27:37;3.30;;;2.93;;
22929;SDS011;11630;42.660;23.292;2023-08-12T01:30:07;3.43;;;3.00;;
22929;SDS011;11630;42.660;23.292;2023-08-12T01:32:40;6.97;;;3.10;;
22929;SDS011;11630;42.660;23.292;2023-08-12T01:35:28;4.13;;;3.20;;
22929;SDS011;11630;42.660;23.292;2023-08-12T01:38:17;4.37;;;3.10;;
22929;SDS011;11630;42.660;23.292;2023-08-12T01:40:49;9.23;;;3.43;;
22929;SDS011;11630;42.660;23.292;2023-08-12T01:43:20;3.70;;;3.07;;
22929;SDS011;11630;42.660;23.292;2023-08-12T01:45:51;3.50;;;3.20;;
22929;SDS011;11630;42.660;23.292;2023-08-12T01:48:22;12.47;;;4.03;;
22929;SDS011;11630;42.660;23.292;2023-08-12T01:50:53;2.87;;;2.67;;
22929;SDS011;11630;42.660;23.292;2023-08-12T01:53:23;9.07;;;2.90;;
22929;SDS011;11630;42.660;23.292;2023-08-12T01:55:54;3.40;;;2.97;;
22929;SDS011;11630;42.660;23.292;2023-08-12T01:58:25;4.40;;;3.33;;
22929;SDS011;11630;42.660;23.292;2023-08-12T02:00:56;6.47;;;3.20;;
22929;SDS011;11630;42.660;23.292;2023-08-12T02:03:27;5.20;;;3.20;;
22929;SDS011;11630;42.660;23.292;2023-08-12T02:05:58;6.10;;;3.00;;
22929;SDS011;11630;42.660;23.292;2023-08-12T02:08:29;3.30;;;2.73;;
22929;SDS011;11630;42.660;23.292;2023-08-12T02:10:59;3.93;;;3.07;;
22929;SDS011;11630;42.660;23.292;2023-08-12T02:13:30;3.03;;;2.77;;
22929;SDS011;11630;42.660;23.292;2023-08-12T02:16:01;5.47;;;2.93;;
22929;SDS011;11630;42.660;23.292;2023-08-12T02:18:32;3.27;;;2.97;;
22929;SDS011;11630;42.660;23.292;2023-08-12T02:21:03;5.40;;;3.00;;
22929;SDS011;11630;42.660;23.292;2023-08-12T02:23:34;13.87;;;3.93;;
22929;SDS011;11630;42.660;23.292;2023-08-12T02:26:05;4.97;;;2.80;;
22929;SDS011;11630;42.660;23.292;2023-08-12T02:28:36;3.60;;;2.70;;
22929;SDS011;11630;42.660;23.292;2023-08-12T02:31:07;3.57;;;3.07;;
22929;SDS011;11630;42.660;23.292;2023-08-12T02:33:37;3.83;;;3.43;;
22929;SDS011;11630;42.660;23.292;2023-08-12T02:36:08;4.30;;;3.67;;
22929;SDS011;11630;42.660;23.292;2023-08-12T02:38:39;7.17;;;3.27;;
22929;SDS011;11630;42.660;23.292;2023-08-12T02:41:09;5.37;;;2.80;;
22929;SDS011;11630;42.660;23.292;2023-08-12T02:43:41;3.27;;;2.70;;
22929;SDS011;11630;42.660;23.292;2023-08-12T02:46:14;3.57;;;3.03;;
22929;SDS011;11630;42.660;23.292;2023-08-12T02:48:43;3.37;;;2.83;;
22929;SDS011;11630;42.660;23.292;2023-08-12T02:51:17;8.50;;;2.73;;
22929;SDS011;11630;42.660;23.292;2023-08-12T02:53:51;5.07;;;2.70;;
22929;SDS011;11630;42.660;23.292;2023-08-12T02:56:24;2.80;;;2.47;;
22929;SDS011;11630;42.660;23.292;2023-08-12T02:58:55;4.57;;;3.17;;
22929;SDS011;11630;42.660;23.292;2023-08-12T03:01:26;3.87;;;2.70;;
22929;SDS011;11630;42.660;23.292;2023-08-12T03:03:57;3.33;;;2.67;;
22929;SDS011;11630;42.660;23.292;2023-08-12T03:06:27;3.27;;;2.47;;
22929;SDS011;11630;42.660;23.292;2023-08-12T03:08:56;11.43;;;3.20;;
22929;SDS011;11630;42.660;23.292;2023-08-12T03:11:27;3.60;;;2.70;;
22929;SDS011;11630;42.660;23.292;2023-08-12T03:13:58;3.37;;;2.90;;
22929;SDS011;11630;42.660;23.292;2023-08-12T03:16:28;2.67;;;2.43;;
22929;SDS011;11630;42.660;23.292;2023-08-12T03:18:59;5.13;;;2.83;;
22929;SDS011;11630;42.660;23.292;2023-08-12T03:21:30;2.80;;;2.60;;
22929;SDS011;11630;42.660;23.292;2023-08-12T03:24:01;6.67;;;3.40;;
22929;SDS011;11630;42.660;23.292;2023-08-12T03:26:31;3.50;;;2.73;;
22929;SDS011;11630;42.660;23.292;2023-08-12T03:29:01;3.93;;;3.20;;
22929;SDS011;11630;42.660;23.292;2023-08-12T03:31:32;4.17;;;2.73;;
22929;SDS011;11630;42.660;23.292;2023-08-12T03:34:03;6.70;;;2.90;;
22929;SDS011;11630;42.660;23.292;2023-08-12T03:36:34;5.47;;;3.40;;
22929;SDS011;11630;42.660;23.292;2023-08-12T03:39:05;7.40;;;3.30;;
22929;SDS011;11630;42.660;23.292;2023-08-12T03:41:36;4.80;;;2.80;;
22929;SDS011;11630;42.660;23.292;2023-08-12T03:44:07;4.07;;;2.90;;
22929;SDS011;11630;42.660;23.292;2023-08-12T03:46:41;3.27;;;2.97;;
22929;SDS011;11630;42.660;23.292;2023-08-12T03:49:12;4.13;;;3.20;;
22929;SDS011;11630;42.660;23.292;2023-08-12T03:51:42;7.67;;;3.10;;
22929;SDS011;11630;42.660;23.292;2023-08-12T03:54:13;5.63;;;3.53;;
22929;SDS011;11630;42.660;23.292;2023-08-12T03:56:44;4.40;;;3.40;;
22929;SDS011;11630;42.660;23.292;2023-08-12T03:59:15;10.77;;;3.93;;
22929;SDS011;11630;42.660;23.292;2023-08-12T04:01:46;9.33;;;3.80;;
22929;SDS011;11630;42.660;23.292;2023-08-12T04:04:17;4.57;;;3.70;;
22929;SDS011;11630;42.660;23.292;2023-08-12T04:06:48;5.50;;;2.90;;
22929;SDS011;11630;42.660;23.292;2023-08-12T04:09:20;7.60;;;2.90;;
22929;SDS011;11630;42.660;23.292;2023-08-12T04:11:50;4.10;;;3.40;;
22929;SDS011;11630;42.660;23.292;2023-08-12T04:14:22;7.53;;;3.17;;
22929;SDS011;11630;42.660;23.292;2023-08-12T04:16:51;8.10;;;3.73;;
22929;SDS011;11630;42.660;23.292;2023-08-12T04:19:21;5.27;;;3.90;;
22929;SDS011;11630;42.660;23.292;2023-08-12T04:21:53;4.13;;;3.57;;
22929;SDS011;11630;42.660;23.292;2023-08-12T04:24:24;7.87;;;3.30;;
22929;SDS011;11630;42.660;23.292;2023-08-12T04:26:54;5.90;;;3.63;;
22929;SDS011;11630;42.660;23.292;2023-08-12T04:29:25;5.30;;;3.43;;
22929;SDS011;11630;42.660;23.292;2023-08-12T04:31:55;5.57;;;3.90;;
22929;SDS011;11630;42.660;23.292;2023-08-12T04:34:26;7.70;;;3.63;;
22929;SDS011;11630;42.660;23.292;2023-08-12T04:36:56;5.90;;;3.57;;
22929;SDS011;11630;42.660;23.292;2023-08-12T04:39:27;8.70;;;3.27;;
22929;SDS011;11630;42.660;23.292;2023-08-12T04:41:58;4.00;;;3.03;;
22929;SDS011;11630;42.660;23.292;2023-08-12T04:44:29;4.33;;;3.07;;
22929;SDS011;11630;42.660;23.292;2023-08-12T04:47:04;5.83;;;3.03;;
22929;SDS011;11630;42.660;23.292;2023-08-12T04:49:35;5.97;;;3.10;;
22929;SDS011;11630;42.660;23.292;2023-08-12T04:52:06;4.43;;;3.13;;
22929;SDS011;11630;42.660;23.292;2023-08-12T04:54:37;9.10;;;3.30;;
22929;SDS011;11630;42.660;23.292;2023-08-12T04:57:08;4.07;;;2.70;;
22929;SDS011;11630;42.660;23.292;2023-08-12T04:59:39;4.33;;;2.80;;
22929;SDS011;11630;42.660;23.292;2023-08-12T05:02:10;3.73;;;2.80;;
22929;SDS011;11630;42.660;23.292;2023-08-12T05:04:40;10.53;;;3.13;;
22929;SDS011;11630;42.660;23.292;2023-08-12T05:07:09;3.13;;;2.60;;
22929;SDS011;11630;42.660;23.292;2023-08-12T05:09:42;6.57;;;3.00;;
22929;SDS011;11630;42.660;23.292;2023-08-12T05:12:12;10.23;;;3.50;;
22929;SDS011;11630;42.660;23.292;2023-08-12T05:14:43;3.40;;;3.10;;
22929;SDS011;11630;42.660;23.292;2023-08-12T05:17:14;3.37;;;3.03;;
22929;SDS011;11630;42.660;23.292;2023-08-12T05:19:45;3.63;;;3.10;;
22929;SDS011;11630;42.660;23.292;2023-08-12T05:22:15;5.73;;;3.43;;
22929;SDS011;11630;42.660;23.292;2023-08-12T05:24:46;11.67;;;3.97;;
22929;SDS011;11630;42.660;23.292;2023-08-12T05:27:17;6.17;;;2.73;;
22929;SDS011;11630;42.660;23.292;2023-08-12T05:29:47;6.47;;;3.47;;
22929;SDS011;11630;42.660;23.292;2023-08-12T05:32:19;5.10;;;3.13;;
22929;SDS011;11630;42.660;23.292;2023-08-12T05:34:52;4.77;;;3.87;;
22929;SDS011;11630;42.660;23.292;2023-08-12T05:37:22;9.43;;;3.47;;
22929;SDS011;11630;42.660;23.292;2023-08-12T05:39:53;5.60;;;3.27;;
22929;SDS011;11630;42.660;23.292;2023-08-12T05:42:24;6.30;;;3.23;;
22929;SDS011;11630;42.660;23.292;2023-08-12T05:44:55;6.00;;;3.83;;
22929;SDS011;11630;42.660;23.292;2023-08-12T05:47:26;5.80;;;3.27;;
22929;SDS011;11630;42.660;23.292;2023-08-12T05:49:57;3.73;;;3.20;;
22929;SDS011;11630;42.660;23.292;2023-08-12T05:52:28;4.13;;;2.87;;
22929;SDS011;11630;42.660;23.292;2023-08-12T05:54:59;6.97;;;3.80;;
22929;SDS011;11630;42.660;23.292;2023-08-12T05:57:29;7.17;;;3.07;;
22929;SDS011;11630;42.660;23.292;2023-08-12T06:00:00;4.27;;;3.27;;
22929;SDS011;11630;42.660;23.292;2023-08-12T06:02:31;3.50;;;3.07;;
22929;SDS011;11630;42.660;23.292;2023-08-12T06:05:02;8.40;;;3.10;;
22929;SDS011;11630;42.660;23.292;2023-08-12T06:07:34;5.63;;;3.70;;
22929;SDS011;11630;42.660;23.292;2023-08-12T06:10:05;3.50;;;2.70;;
22929;SDS011;11630;42.660;23.292;2023-08-12T06:12:36;4.57;;;2.77;;
22929;SDS011;11630;42.660;23.292;2023-08-12T06:15:07;2.87;;;2.60;;
22929;SDS011;11630;42.660;23.292;2023-08-12T06:17:37;4.03;;;3.27;;
22929;SDS011;11630;42.660;23.292;2023-08-12T06:20:09;4.17;;;3.07;;
22929;SDS011;11630;42.660;23.292;2023-08-12T06:22:40;4.80;;;3.00;;
22929;SDS011;11630;42.660;23.292;2023-08-12T06:25:12;3.50;;;2.73;;
22929;SDS011;11630;42.660;23.292;2023-08-12T06:27:43;2.93;;;2.63;;
22929;SDS011;11630;42.660;23.292;2023-08-12T06:30:17;2.97;;;2.67;;
22929;SDS011;11630;42.660;23.292;2023-08-12T06:32:47;8.13;;;3.27;;
22929;SDS011;11630;42.660;23.292;2023-08-12T06:35:20;6.10;;;2.63;;
22929;SDS011;11630;42.660;23.292;2023-08-12T06:37:50;3.80;;;2.90;;
22929;SDS011;11630;42.660;23.292;2023-08-12T06:40:21;9.10;;;3.00;;
22929;SDS011;11630;42.660;23.292;2023-08-12T06:42:52;4.10;;;2.83;;
22929;SDS011;11630;42.660;23.292;2023-08-12T06:45:23;3.50;;;2.90;;
22929;SDS011;11630;42.660;23.292;2023-08-12T06:47:54;4.30;;;2.93;;
22929;SDS011;11630;42.660;23.292;2023-08-12T06:50:25;7.77;;;2.73;;
22929;SDS011;11630;42.660;23.292;2023-08-12T06:52:56;3.13;;;2.83;;
22929;SDS011;11630;42.660;23.292;2023-08-12T06:55:27;3.30;;;2.97;;
22929;SDS011;11630;42.660;23.292;2023-08-12T06:57:59;2.60;;;2.40;;
22929;SDS011;11630;42.660;23.292;2023-08-12T07:00:30;3.47;;;2.53;;
22929;SDS011;11630;42.660;23.292;2023-08-12T07:03:01;4.43;;;2.83;;
22929;SDS011;11630;42.660;23.292;2023-08-12T07:05:35;4.50;;;2.90;;
22929;SDS011;11630;42.660;23.292;2023-08-12T07:08:05;6.57;;;3.10;;
22929;SDS011;11630;42.660;23.292;2023-08-12T07:10:40;5.83;;;2.87;;
22929;SDS011;11630;42.660;23.292;2023-08-12T07:13:09;3.13;;;2.60;;
22929;SDS011;11630;42.660;23.292;2023-08-12T07:15:39;4.03;;;2.50;;
22929;SDS011;11630;42.660;23.292;2023-08-12T07:18:09;4.50;;;3.03;;
22929;SDS011;11630;42.660;23.292;2023-08-12T07:20:41;3.63;;;2.37;;
22929;SDS011;11630;42.660;23.292;2023-08-12T07:23:13;3.77;;;2.77;;
22929;SDS011;11630;42.660;23.292;2023-08-12T07:25:51;4.03;;;2.77;;
22929;SDS011;11630;42.660;23.292;2023-08-12T07:28:21;4.87;;;2.80;;
22929;SDS011;11630;42.660;23.292;2023-08-12T07:30:53;4.60;;;3.10;;
22929;SDS011;11630;42.660;23.292;2023-08-12T07:33:22;6.67;;;2.87;;
22929;SDS011;11630;42.660;23.292;2023-08-12T07:35:51;5.73;;;3.50;;
22929;SDS011;11630;42.660;23.292;2023-08-12T07:38:22;5.30;;;3.00;;
22929;SDS011;11630;42.660;23.292;2023-08-12T07:40:53;7.33;;;3.37;;
22929;SDS011;11630;42.660;23.292;2023-08-12T07:43:23;4.13;;;3.10;;
22929;SDS011;11630;42.660;23.292;2023-08-12T07:45:55;5.07;;;3.30;;
22929;SDS011;11630;42.660;23.292;2023-08-12T07:48:26;3.83;;;2.97;;
22929;SDS011;11630;42.660;23.292;2023-08-12T07:50:57;4.90;;;3.33;;
22929;SDS011;11630;42.660;23.292;2023-08-12T07:53:28;6.53;;;3.13;;
22929;SDS011;11630;42.660;23.292;2023-08-12T07:55:59;5.93;;;3.10;;
22929;SDS011;11630;42.660;23.292;2023-08-12T07:58:30;5.70;;;3.20;;
22929;SDS011;11630;42.660;23.292;2023-08-12T08:01:01;6.67;;;3.37;;
22929;SDS011;11630;42.660;23.292;2023-08-12T08:03:31;6.53;;;3.30;;
22929;SDS011;11630;42.660;23.292;2023-08-12T08:06:02;3.57;;;2.83;;
22929;SDS011;11630;42.660;23.292;2023-08-12T08:08:33;4.17;;;3.23;;
22929;SDS011;11630;42.660;23.292;2023-08-12T08:11:04;4.40;;;3.20;;
22929;SDS011;11630;42.660;23.292;2023-08-12T08:13:35;4.70;;;2.70;;
22929;SDS011;11630;42.660;23.292;2023-08-12T08:16:06;6.00;;;2.93;;
22929;SDS011;11630;42.660;23.292;2023-08-12T08:18:37;7.77;;;2.80;;
22929;SDS011;11630;42.660;23.292;2023-08-12T08:21:08;5.37;;;3.10;;
22929;SDS011;11630;42.660;23.292;2023-08-12T08:23:40;8.80;;;4.20;;
22929;SDS011;11630;42.660;23.292;2023-08-12T08:26:11;3.67;;;3.10;;
22929;SDS011;11630;42.660;23.292;2023-08-12T08:28:42;5.43;;;3.47;;
22929;SDS011;11630;42.660;23.292;2023-08-12T08:31:12;14.37;;;3.57;;
22929;SDS011;11630;42.660;23.292;2023-08-12T08:33:43;7.47;;;3.10;;
22929;SDS011;11630;42.660;23.292;2023-08-12T08:36:14;9.40;;;3.20;;
22929;SDS011;11630;42.660;23.292;2023-08-12T08:38:45;3.60;;;3.10;;
22929;SDS011;11630;42.660;23.292;2023-08-12T08:41:17;3.00;;;2.63;;
22929;SDS011;11630;42.660;23.292;2023-08-12T08:43:48;6.53;;;3.00;;
22929;SDS011;11630;42.660;23.292;2023-08-12T08:46:18;3.70;;;2.93;;
22929;SDS011;11630;42.660;23.292;2023-08-12T08:48:50;5.30;;;3.60;;
22929;SDS011;11630;42.660;23.292;2023-08-12T08:51:22;3.20;;;2.90;;
22929;SDS011;11630;42.660;23.292;2023-08-12T08:53:53;4.77;;;3.07;;
22929;SDS011;11630;42.660;23.292;2023-08-12T08:56:25;2.73;;;2.53;;
22929;SDS011;11630;42.660;23.292;2023-08-12T08:58:56;3.27;;;2.40;;
22929;SDS011;11630;42.660;23.292;2023-08-12T09:01:26;5.87;;;3.00;;
22929;SDS011;11630;42.660;23.292;2023-08-12T09:03:58;3.33;;;2.63;;
22929;SDS011;11630;42.660;23.292;2023-08-12T09:06:29;3.93;;;2.80;;
22929;SDS011;11630;42.660;23.292;2023-08-12T09:09:00;3.17;;;2.80;;
22929;SDS011;11630;42.660;23.292;2023-08-12T09:11:31;6.30;;;2.37;;
22929;SDS011;11630;42.660;23.292;2023-08-12T09:14:03;6.97;;;3.00;;
22929;SDS011;11630;42.660;23.292;2023-08-12T09:16:34;12.20;;;2.97;;
22929;SDS011;11630;42.660;23.292;2023-08-12T09:19:05;2.73;;;2.50;;
22929;SDS011;11630;42.660;23.292;2023-08-12T09:21:36;2.47;;;2.27;;
22929;SDS011;11630;42.660;23.292;2023-08-12T09:24:07;3.03;;;2.60;;
22929;SDS011;11630;42.660;23.292;2023-08-12T09:26:38;2.60;;;2.30;;
22929;SDS011;11630;42.660;23.292;2023-08-12T09:29:09;5.80;;;2.60;;
22929;SDS011;11630;42.660;23.292;2023-08-12T09:31:42;4.30;;;3.20;;
22929;SDS011;11630;42.660;23.292;2023-08-12T09:34:13;3.80;;;2.90;;
22929;SDS011;11630;42.660;23.292;2023-08-12T09:36:45;4.90;;;3.00;;
22929;SDS011;11630;42.660;23.292;2023-08-12T09:39:17;2.80;;;2.60;;
22929;SDS011;11630;42.660;23.292;2023-08-12T09:41:51;4.03;;;3.40;;
22929;SDS011;11630;42.660;23.292;2023-08-12T09:44:22;5.27;;;2.90;;
22929;SDS011;11630;42.660;23.292;2023-08-12T09:46:56;7.77;;;3.30;;
22929;SDS011;11630;42.660;23.292;2023-08-12T09:49:27;2.70;;;2.50;;
22929;SDS011;11630;42.660;23.292;2023-08-12T09:52:06;2.63;;;2.40;;
22929;SDS011;11630;42.660;23.292;2023-08-12T09:54:42;4.33;;;2.83;;
22929;SDS011;11630;42.660;23.292;2023-08-12T09:57:13;7.95;;;2.22;;
22929;SDS011;11630;42.660;23.292;2023-08-12T09:59:45;4.20;;;2.37;;
22929;SDS011;11630;42.660;23.292;2023-08-12T10:02:16;3.15;;;2.27;;
22929;SDS011;11630;42.660;23.292;2023-08-12T10:04:47;13.50;;;3.90;;
22929;SDS011;11630;42.660;23.292;2023-08-12T10:07:19;3.70;;;2.10;;
22929;SDS011;11630;42.660;23.292;2023-08-12T10:09:51;4.30;;;2.63;;
22929;SDS011;11630;42.660;23.292;2023-08-12T10:12:22;3.30;;;2.52;;
22929;SDS011;11630;42.660;23.292;2023-08-12T10:14:53;2.63;;;2.43;;
22929;SDS011;11630;42.660;23.292;2023-08-12T10:17:24;2.62;;;1.62;;
22929;SDS011;11630;42.660;23.292;2023-08-12T10:19:56;4.15;;;3.35;;
22929;SDS011;11630;42.660;23.292;2023-08-12T10:22:27;2.52;;;2.05;;
22929;SDS011;11630;42.660;23.292;2023-08-12T10:25:01;7.00;;;2.42;;
22929;SDS011;11630;42.660;23.292;2023-08-12T10:27:32;3.22;;;2.30;;
22929;SDS011;11630;42.660;23.292;2023-08-12T10:30:04;3.87;;;2.60;;
22929;SDS011;11630;42.660;23.292;2023-08-12T10:32:36;2.90;;;2.62;;
22929;SDS011;11630;42.660;23.292;2023-08-12T10:35:06;4.90;;;2.33;;
22929;SDS011;11630;42.660;23.292;2023-08-12T10:37:36;3.70;;;2.30;;
22929;SDS011;11630;42.660;23.292;2023-08-12T10:40:19;4.53;;;2.13;;
22929;SDS011;11630;42.660;23.292;2023-08-12T10:42:51;2.60;;;2.40;;
22929;SDS011;11630;42.660;23.292;2023-08-12T10:45:22;2.30;;;2.10;;
22929;SDS011;11630;42.660;23.292;2023-08-12T10:48:39;4.37;;;3.08;;
22929;SDS011;11630;42.660;23.292;2023-08-12T10:50:30;4.60;;;2.70;;
22929;SDS011;11630;42.660;23.292;2023-08-12T10:53:20;5.10;;;3.05;;
22929;SDS011;11630;42.660;23.292;2023-08-12T10:55:53;2.47;;;2.00;;
22929;SDS011;11630;42.660;23.292;2023-08-12T10:58:36;2.25;;;2.00;;
22929;SDS011;11630;42.660;23.292;2023-08-12T11:01:21;6.30;;;2.62;;
22929;SDS011;11630;42.660;23.292;2023-08-12T11:03:51;2.40;;;2.30;;
22929;SDS011;11630;42.660;23.292;2023-08-12T11:06:20;2.80;;;2.60;;
22929;SDS011;11630;42.660;23.292;2023-08-12T11:08:52;3.52;;;2.95;;
22929;SDS011;11630;42.660;23.292;2023-08-12T11:11:23;2.87;;;2.10;;
22929;SDS011;11630;42.660;23.292;2023-08-12T11:13:54;6.62;;;2.30;;
22929;SDS011;11630;42.660;23.292;2023-08-12T11:16:58;2.12;;;1.82;;
22929;SDS011;11630;42.660;23.292;2023-08-12T11:19:05;4.87;;;2.83;;
22929;SDS011;11630;42.660;23.292;2023-08-12T11:21:36;2.67;;;2.47;;
22929;SDS011;11630;42.660;23.292;2023-08-12T11:24:08;8.25;;;2.72;;
22929;SDS011;11630;42.660;23.292;2023-08-12T11:26:39;6.20;;;2.92;;
22929;SDS011;11630;42.660;23.292;2023-08-12T11:29:11;4.78;;;1.95;;
22929;SDS011;11630;42.660;23.292;2023-08-12T11:31:42;2.92;;;2.45;;
22929;SDS011;11630;42.660;23.292;2023-08-12T11:34:13;2.40;;;2.20;;
22929;SDS011;11630;42.660;23.292;2023-08-12T11:36:44;1.92;;;1.70;;
22929;SDS011;11630;42.660;23.292;2023-08-12T11:39:14;2.05;;;1.90;;
22929;SDS011;11630;42.660;23.292;2023-08-12T11:41:46;3.15;;;1.70;;
22929;SDS011;11630;42.660;23.292;2023-08-12T11:44:16;1.92;;;1.80;;
22929;SDS011;11630;42.660;23.292;2023-08-12T11:46:49;1.70;;;1.60;;
22929;SDS011;11630;42.660;23.292;2023-08-12T11:49:20;5.28;;;1.60;;
22929;SDS011;11630;42.660;23.292;2023-08-12T11:51:51;2.35;;;1.67;;
22929;SDS011;11630;42.660;23.292;2023-08-12T11:54:21;2.25;;;1.80;;
22929;SDS011;11630;42.660;23.292;2023-08-12T11:56:55;3.92;;;2.00;;
22929;SDS011;11630;42.660;23.292;2023-08-12T11:59:26;1.67;;;1.52;;
22929;SDS011;11630;42.660;23.292;2023-08-12T12:02:01;3.22;;;1.72;;
22929;SDS011;11630;42.660;23.292;2023-08-12T12:04:31;3.87;;;2.27;;
22929;SDS011;11630;42.660;23.292;2023-08-12T12:07:01;3.00;;;1.77;;
22929;SDS011;11630;42.660;23.292;2023-08-12T12:09:32;3.27;;;1.92;;
22929;SDS011;11630;42.660;23.292;2023-08-12T12:12:04;2.55;;;1.95;;
22929;SDS011;11630;42.660;23.292;2023-08-12T12:14:35;1.65;;;1.55;;
22929;SDS011;11630;42.660;23.292;2023-08-12T12:17:09;2.00;;;1.90;;
22929;SDS011;11630;42.660;23.292;2023-08-12T12:19:40;2.58;;;1.70;;
22929;SDS011;11630;42.660;23.292;2023-08-12T12:22:10;3.90;;;1.65;;
22929;SDS011;11630;42.660;23.292;2023-08-12T12:24:44;3.35;;;1.85;;
22929;SDS011;11630;42.660;23.292;2023-08-12T12:27:17;3.52;;;1.85;;
22929;SDS011;11630;42.660;23.292;2023-08-12T12:29:48;5.08;;;2.05;;
22929;SDS011;11630;42.660;23.292;2023-08-12T12:32:19;2.62;;;1.92;;
22929;SDS011;11630;42.660;23.292;2023-08-12T12:34:49;1.87;;;1.77;;
22929;SDS011;11630;42.660;23.292;2023-08-12T12:37:19;8.60;;;2.27;;
22929;SDS011;11630;42.660;23.292;2023-08-12T12:39:49;2.10;;;1.90;;
22929;SDS011;11630;42.660;23.292;2023-08-12T12:42:23;3.83;;;1.92;;
22929;SDS011;11630;42.660;23.292;2023-08-12T12:44:56;2.98;;;2.10;;
22929;SDS011;11630;42.660;23.292;2023-08-12T12:47:26;4.60;;;2.00;;
22929;SDS011;11630;42.660;23.292;2023-08-12T12:49:56;4.53;;;2.30;;
22929;SDS011;11630;42.660;23.292;2023-08-12T12:52:30;4.50;;;1.63;;
22929;SDS011;11630;42.660;23.292;2023-08-12T12:55:01;2.20;;;2.00;;
22929;SDS011;11630;42.660;23.292;2023-08-12T12:57:32;2.43;;;2.10;;
22929;SDS011;11630;42.660;23.292;2023-08-12T13:00:03;2.67;;;2.00;;
22929;SDS011;11630;42.660;23.292;2023-08-12T13:02:34;3.27;;;2.17;;
22929;SDS011;11630;42.660;23.292;2023-08-12T13:05:05;6.17;;;2.35;;
22929;SDS011;11630;42.660;23.292;2023-08-12T13:07:38;10.45;;;5.12;;
22929;SDS011;11630;42.660;23.292;2023-08-12T13:10:09;4.50;;;1.98;;
22929;SDS011;11630;42.660;23.292;2023-08-12T13:12:39;1.92;;;1.82;;
22929;SDS011;11630;42.660;23.292;2023-08-12T13:15:10;2.90;;;1.85;;
22929;SDS011;11630;42.660;23.292;2023-08-12T13:17:41;5.33;;;1.85;;
22929;SDS011;11630;42.660;23.292;2023-08-12T13:20:12;2.10;;;1.80;;
22929;SDS011;11630;42.660;23.292;2023-08-12T13:22:45;1.70;;;1.60;;
22929;SDS011;11630;42.660;23.292;2023-08-12T13:25:16;3.22;;;1.50;;
22929;SDS011;11630;42.660;23.292;2023-08-12T13:27:45;2.67;;;2.10;;
22929;SDS011;11630;42.660;23.292;2023-08-12T13:30:16;3.77;;;2.35;;
22929;SDS011;11630;42.660;23.292;2023-08-12T13:32:47;6.37;;;2.08;;
22929;SDS011;11630;42.660;23.292;2023-08-12T13:35:18;3.77;;;2.35;;
22929;SDS011;11630;42.660;23.292;2023-08-12T13:37:48;1.57;;;1.47;;
22929;SDS011;11630;42.660;23.292;2023-08-12T13:40:20;5.50;;;2.00;;
22929;SDS011;11630;42.660;23.292;2023-08-12T13:42:50;2.30;;;2.10;;
22929;SDS011;11630;42.660;23.292;2023-08-12T13:45:21;1.80;;;1.70;;
22929;SDS011;11630;42.660;23.292;2023-08-12T13:47:52;2.15;;;1.95;;
22929;SDS011;11630;42.660;23.292;2023-08-12T13:50:23;1.70;;;1.60;;
22929;SDS011;11630;42.660;23.292;2023-08-12T13:52:52;3.87;;;1.85;;
22929;SDS011;11630;42.660;23.292;2023-08-12T13:55:24;3.42;;;1.82;;
22929;SDS011;11630;42.660;23.292;2023-08-12T13:57:54;2.77;;;1.70;;
22929;SDS011;11630;42.660;23.292;2023-08-12T14:00:25;3.65;;;2.20;;
22929;SDS011;11630;42.660;23.292;2023-08-12T14:02:55;2.50;;;2.02;;
22929;SDS011;11630;42.660;23.292;2023-08-12T14:05:26;2.25;;;2.05;;
22929;SDS011;11630;42.660;23.292;2023-08-12T14:07:57;5.58;;;2.17;;
22929;SDS011;11630;42.660;23.292;2023-08-12T14:10:27;3.98;;;2.33;;
22929;SDS011;11630;42.660;23.292;2023-08-12T14:12:58;3.07;;;1.70;;
22929;SDS011;11630;42.660;23.292;2023-08-12T14:15:29;2.77;;;2.00;;
22929;SDS011;11630;42.660;23.292;2023-08-12T14:18:02;2.40;;;2.20;;
22929;SDS011;11630;42.660;23.292;2023-08-12T14:20:34;2.10;;;1.90;;
22929;SDS011;11630;42.660;23.292;2023-08-12T14:23:04;5.57;;;1.97;;
22929;SDS011;11630;42.660;23.292;2023-08-12T14:25:38;6.58;;;2.98;;
22929;SDS011;11630;42.660;23.292;2023-08-12T14:28:11;2.00;;;1.80;;
22929;SDS011;11630;42.660;23.292;2023-08-12T14:30:42;2.22;;;1.90;;
22929;SDS011;11630;42.660;23.292;2023-08-12T14:33:13;1.83;;;1.67;;
22929;SDS011;11630;42.660;23.292;2023-08-12T14:35:44;6.17;;;2.20;;
22929;SDS011;11630;42.660;23.292;2023-08-12T14:38:15;2.10;;;1.90;;
22929;SDS011;11630;42.660;23.292;2023-08-12T14:40:47;3.70;;;2.53;;
22929;SDS011;11630;42.660;23.292;2023-08-12T14:43:19;7.17;;;2.10;;
22929;SDS011;11630;42.660;23.292;2023-08-12T14:45:50;4.23;;;1.77;;
22929;SDS011;11630;42.660;23.292;2023-08-12T14:48:20;2.07;;;1.90;;
22929;SDS011;11630;42.660;23.292;2023-08-12T14:50:52;2.13;;;1.80;;
22929;SDS011;11630;42.660;23.292;2023-08-12T14:53:24;3.67;;;1.93;;
22929;SDS011;11630;42.660;23.292;2023-08-12T14:55:56;1.83;;;1.70;;
22929;SDS011;11630;42.660;23.292;2023-08-12T14:58:28;2.00;;;1.83;;
22929;SDS011;11630;42.660;23.292;2023-08-12T15:00:59;4.03;;;2.10;;